Time;durP1;ratioP1;P1;durP2;ratioP2;P2;SDS_P1;SDS_P2;PMS_P1;PMS_P2;Temp;Humidity;BMP_temperature;BMP_pressure;BME280_temperature;BME280_humidity;BME280_pressure;Samples;Min_cycle;Max_cycle;Signal;HPM_P1;HPM_P2
2023/02/10 00:00:06;;;;;;;20.33;6.80;;;0.40;99.90;;;;;;5050540;28;20556;-65
2023/02/10 00:02:32;;;;;;;24.90;10.00;;;0.40;99.90;;;;;;5045049;28;20033;-64
2023/02/10 00:04:57;;;;;;;27.33;9.50;;;0.30;99.90;;;;;;5051976;28;20032;-65
2023/02/10 00:07:23;;;;;;;25.07;9.00;;;0.30;99.90;;;;;;5051591;28;20354;-65
2023/02/10 00:09:49;;;;;;;32.67;9.07;;;0.40;99.90;;;;;;5059030;28;20040;-65
2023/02/10 00:12:15;;;;;;;16.00;6.45;;;0.40;99.90;;;;;;5054121;28;20120;-65
2023/02/10 00:14:41;;;;;;;21.27;6.63;;;0.40;99.90;;;;;;5050446;28;20108;-66
2023/02/10 00:17:07;;;;;;;24.37;8.47;;;0.40;99.90;;;;;;5053582;28;20112;-65
2023/02/10 00:19:33;;;;;;;33.27;8.47;;;0.30;99.90;;;;;;5052967;28;20331;-68
2023/02/10 00:22:01;;;;;;;21.67;8.50;;;0.40;99.90;;;;;;5054170;28;20029;-65
2023/02/10 00:24:27;;;;;;;20.25;7.50;;;0.40;99.90;;;;;;5049900;28;20088;-69
2023/02/10 00:26:53;;;;;;;18.77;7.15;;;0.40;99.90;;;;;;4992719;28;20163;-66
2023/02/10 00:29:20;;;;;;;22.25;5.57;;;0.40;99.90;;;;;;4954601;28;20035;-65
2023/02/10 00:31:46;;;;;;;29.65;7.07;;;0.40;99.90;;;;;;4952024;28;20040;-66
2023/02/10 00:34:17;;;;;;;15.77;6.43;;;0.40;99.90;;;;;;4958446;28;20063;-65
2023/02/10 00:36:43;;;;;;;25.23;8.00;;;0.30;99.90;;;;;;4940963;28;20039;-72
2023/02/10 00:39:13;;;;;;;15.82;5.25;;;0.30;99.90;;;;;;4957614;28;20866;-65
2023/02/10 00:41:40;;;;;;;23.27;6.32;;;0.30;99.90;;;;;;4957833;28;20036;-64
2023/02/10 00:44:06;;;;;;;17.90;7.18;;;0.30;99.90;;;;;;4957120;28;20041;-66
2023/02/10 00:46:32;;;;;;;22.05;7.03;;;0.20;99.90;;;;;;4957624;28;21433;-65
2023/02/10 00:48:58;;;;;;;23.80;6.53;;;0.20;99.90;;;;;;4941044;28;21572;-65
2023/02/10 00:51:24;;;;;;;16.47;6.90;;;0.10;99.90;;;;;;4956579;28;20655;-68
2023/02/10 00:53:50;;;;;;;10.40;4.83;;;0.10;99.90;;;;;;4956498;28;20298;-65
2023/02/10 00:56:18;;;;;;;15.73;6.18;;;0.00;99.90;;;;;;4957312;28;20082;-65
2023/02/10 00:58:44;;;;;;;19.65;6.38;;;0.00;99.90;;;;;;4957742;28;20620;-65
2023/02/10 01:01:11;;;;;;;12.93;4.57;;;0.00;99.90;;;;;;4957348;28;20375;-65
2023/02/10 01:03:37;;;;;;;17.88;6.18;;;0.00;99.90;;;;;;4938571;28;20039;-66
2023/02/10 01:06:03;;;;;;;12.23;5.28;;;0.00;99.90;;;;;;4937879;28;20033;-65
2023/02/10 01:08:29;;;;;;;14.07;5.20;;;-0.10;99.90;;;;;;4956384;28;20094;-65
2023/02/10 01:11:05;;;;;;;9.90;4.28;;;-0.10;99.90;;;;;;4957083;28;20024;-65
2023/02/10 01:13:33;;;;;;;17.08;5.68;;;-0.10;99.90;;;;;;4954516;28;20029;-64
2023/02/10 01:16:00;;;;;;;19.20;5.60;;;0.00;99.90;;;;;;4956567;28;20707;-66
2023/02/10 01:18:26;;;;;;;14.30;4.93;;;0.00;99.90;;;;;;4958767;28;20114;-66
2023/02/10 01:20:52;;;;;;;12.63;3.42;;;0.00;99.90;;;;;;4957221;28;20041;-65
2023/02/10 01:23:18;;;;;;;21.73;5.40;;;0.00;99.90;;;;;;4956130;28;20065;-66
2023/02/10 01:25:44;;;;;;;16.67;5.77;;;0.00;99.90;;;;;;4956786;28;20097;-72
2023/02/10 01:28:10;;;;;;;12.13;4.43;;;0.00;99.90;;;;;;4956213;28;20108;-66
2023/02/10 01:30:36;;;;;;;17.47;5.03;;;0.00;99.90;;;;;;4956939;28;21433;-65
2023/02/10 01:33:02;;;;;;;17.27;5.10;;;0.00;99.90;;;;;;4957862;28;23526;-65
2023/02/10 01:35:28;;;;;;;20.17;5.67;;;0.00;99.90;;;;;;4939685;28;20757;-65
2023/02/10 01:37:54;;;;;;;16.77;5.80;;;0.10;99.90;;;;;;4954867;28;20269;-65
2023/02/10 01:40:21;;;;;;;15.88;4.63;;;0.10;99.90;;;;;;4959151;28;20053;-65
2023/02/10 01:42:47;;;;;;;14.27;5.45;;;0.20;99.90;;;;;;4955229;28;20032;-66
2023/02/10 01:45:18;;;;;;;15.33;5.40;;;0.10;99.90;;;;;;4956815;28;20111;-65
2023/02/10 01:47:46;;;;;;;17.73;6.25;;;0.00;99.90;;;;;;4954093;28;20033;-65
2023/02/10 01:50:13;;;;;;;14.73;6.00;;;-0.10;99.90;;;;;;4957635;28;20025;-65
2023/02/10 01:52:41;;;;;;;21.10;5.57;;;-0.10;99.90;;;;;;4957531;28;20138;-64
2023/02/10 01:55:10;;;;;;;16.83;6.72;;;-0.10;99.90;;;;;;4958205;28;20021;-64
2023/02/10 01:57:39;;;;;;;17.48;6.38;;;0.00;99.90;;;;;;4956448;28;20021;-70
2023/02/10 02:00:07;;;;;;;19.13;6.32;;;0.00;99.90;;;;;;4956264;28;20013;-67
2023/02/10 02:02:34;;;;;;;13.70;5.95;;;-0.10;99.90;;;;;;4939060;28;20088;-65
2023/02/10 02:05:01;;;;;;;23.10;6.22;;;-0.10;99.90;;;;;;4955867;28;20041;-64
2023/02/10 02:07:29;;;;;;;;;;;-0.10;99.90;;;;;;4956358;28;20025;-65
2023/02/10 02:09:59;;;;;;;13.68;4.78;;;-0.20;99.90;;;;;;4954557;28;20293;-69
2023/02/10 02:12:39;;;;;;;12.10;4.60;;;-0.20;99.90;;;;;;4956519;28;20021;-66
2023/02/10 02:15:24;;;;;;;15.15;4.90;;;-0.20;99.90;;;;;;4957596;28;20397;-64
2023/02/10 02:18:19;;;;;;;15.73;6.30;;;-0.20;99.90;;;;;;4936513;28;20016;-67
2023/02/10 02:20:48;;;;;;;14.70;4.90;;;-0.20;99.90;;;;;;4956812;28;20300;-64
2023/02/10 02:23:14;;;;;;;15.63;6.00;;;-0.10;99.90;;;;;;4943996;28;20021;-64
2023/02/10 02:26:21;;;;;;;18.97;5.23;;;-0.10;99.90;;;;;;4956261;28;20102;-65
2023/02/10 02:28:59;;;;;;;13.05;4.53;;;-0.10;99.90;;;;;;4953395;28;20036;-65
2023/02/10 02:31:57;;;;;;;14.00;5.30;;;0.00;99.90;;;;;;4938239;28;20017;-73
2023/02/10 02:34:35;;;;;;;11.48;4.05;;;-0.10;99.90;;;;;;4956529;28;20028;-72
2023/02/10 02:37:14;;;;;;;16.42;4.95;;;-0.20;99.90;;;;;;4937620;28;20048;-66
2023/02/10 02:39:42;;;;;;;12.50;4.80;;;-0.20;99.90;;;;;;4955566;28;20943;-71
2023/02/10 02:42:16;;;;;;;18.33;5.30;;;-0.30;99.90;;;;;;4955179;28;20052;-67
2023/02/10 02:44:45;;;;;;;14.90;5.95;;;-0.30;99.90;;;;;;4961949;28;20029;-71
2023/02/10 02:47:32;;;;;;;19.70;4.97;;;-0.20;99.90;;;;;;4956060;28;20029;-73
2023/02/10 02:50:23;;;;;;;14.07;4.95;;;-0.20;99.90;;;;;;4956712;28;20141;-70
2023/02/10 02:53:12;;;;;;;9.45;4.30;;;-0.20;99.90;;;;;;4955291;28;20104;-74
2023/02/10 02:55:44;;;;;;;18.63;5.18;;;-0.20;99.90;;;;;;4957087;28;20016;-72
2023/02/10 02:58:20;;;;;;;10.73;4.53;;;-0.20;99.90;;;;;;4954377;28;20029;-72
2023/02/10 03:00:48;;;;;;;15.77;5.53;;;-0.20;99.90;;;;;;4954418;28;20028;-65
2023/02/10 03:03:16;;;;;;;21.52;5.13;;;-0.20;99.90;;;;;;4953330;28;20034;-65
2023/02/10 03:05:42;;;;;;;12.63;5.00;;;-0.20;99.90;;;;;;4956370;28;20036;-65
2023/02/10 03:08:08;;;;;;;21.77;5.77;;;-0.20;99.90;;;;;;4953816;28;20048;-72
2023/02/10 03:10:34;;;;;;;17.10;6.77;;;-0.20;99.90;;;;;;4937064;28;20020;-67
2023/02/10 03:12:59;;;;;;;15.07;6.07;;;-0.20;99.90;;;;;;4952951;28;20297;-74
2023/02/10 03:15:26;;;;;;;12.87;6.80;;;-0.20;99.90;;;;;;4938316;28;20297;-65
2023/02/10 03:17:52;;;;;;;17.13;6.43;;;-0.10;99.90;;;;;;4954444;28;20445;-67
2023/02/10 03:20:18;;;;;;;12.43;6.05;;;-0.10;99.90;;;;;;4953016;28;20082;-65
2023/02/10 03:22:44;;;;;;;21.40;6.63;;;-0.10;99.90;;;;;;4953840;28;20163;-65
2023/02/10 03:25:10;;;;;;;13.27;6.23;;;-0.10;99.90;;;;;;4955211;28;20820;-65
2023/02/10 03:27:36;;;;;;;22.27;7.13;;;-0.10;99.90;;;;;;4937373;28;20119;-65
2023/02/10 03:30:02;;;;;;;19.97;7.23;;;-0.10;99.90;;;;;;4954528;28;20036;-66
2023/02/10 03:32:28;;;;;;;24.63;7.22;;;-0.10;99.90;;;;;;4956223;28;20155;-67
2023/02/10 03:34:54;;;;;;;23.07;7.40;;;-0.10;99.90;;;;;;4952649;28;20031;-65
2023/02/10 03:37:20;;;;;;;22.20;6.80;;;-0.10;99.90;;;;;;4955115;28;20021;-65
2023/02/10 03:39:46;;;;;;;21.67;7.72;;;-0.10;99.90;;;;;;4937067;28;20885;-64
2023/02/10 03:42:12;;;;;;;23.27;6.97;;;-0.20;99.90;;;;;;4955364;28;20060;-66
2023/02/10 03:44:38;;;;;;;17.57;6.20;;;-0.20;99.90;;;;;;4955331;28;20025;-71
2023/02/10 03:47:04;;;;;;;21.23;6.87;;;-0.20;99.90;;;;;;4955340;28;20262;-65
2023/02/10 03:49:30;;;;;;;15.75;6.95;;;-0.20;99.90;;;;;;4953962;28;20032;-64
2023/02/10 03:51:56;;;;;;;12.10;4.65;;;-0.20;99.90;;;;;;4954680;28;20345;-66
2023/02/10 03:54:22;;;;;;;19.27;7.80;;;-0.20;99.90;;;;;;4955057;28;20020;-68
2023/02/10 03:56:48;;;;;;;15.80;5.43;;;-0.20;99.90;;;;;;4956907;28;20025;-65
2023/02/10 03:59:14;;;;;;;13.52;5.40;;;-0.20;99.90;;;;;;4954988;28;20437;-65
2023/02/10 04:01:40;;;;;;;22.60;7.07;;;-0.20;99.90;;;;;;4953480;28;20033;-65
2023/02/10 04:04:06;;;;;;;33.97;8.73;;;-0.20;99.90;;;;;;4954785;28;20028;-64
2023/02/10 04:06:32;;;;;;;19.40;6.67;;;-0.20;99.90;;;;;;4953754;28;20032;-72
2023/02/10 04:08:57;;;;;;;32.83;7.30;;;-0.10;99.90;;;;;;4938621;28;20126;-64
2023/02/10 04:11:23;;;;;;;25.60;9.33;;;-0.10;99.90;;;;;;4955303;28;20048;-65
2023/02/10 04:13:49;;;;;;;26.90;11.03;;;-0.10;99.90;;;;;;4956401;28;20025;-66
2023/02/10 04:16:16;;;;;;;23.63;8.50;;;-0.10;99.90;;;;;;4956372;28;20535;-69
2023/02/10 04:18:43;;;;;;;29.13;10.77;;;-0.10;99.90;;;;;;4956878;28;20063;-73
2023/02/10 04:21:11;;;;;;;32.63;12.38;;;-0.10;99.90;;;;;;4940371;28;20072;-72
2023/02/10 04:23:37;;;;;;;47.42;13.07;;;0.00;99.90;;;;;;4956559;28;20032;-66
2023/02/10 04:26:04;;;;;;;21.10;8.50;;;-0.10;99.90;;;;;;4958124;28;20049;-65
2023/02/10 04:28:30;;;;;;;33.67;12.68;;;-0.10;99.90;;;;;;4958013;28;22025;-66
2023/02/10 04:30:58;;;;;;;46.03;14.40;;;-0.10;99.90;;;;;;4958454;28;20438;-65
2023/02/10 04:33:27;;;;;;;32.05;12.73;;;-0.10;99.90;;;;;;4955866;28;20021;-73
2023/02/10 04:35:54;;;;;;;43.30;12.90;;;-0.10;99.90;;;;;;4940745;28;20875;-75
2023/02/10 04:38:21;;;;;;;34.28;12.60;;;-0.10;99.90;;;;;;4958212;28;22731;-69
2023/02/10 04:40:47;;;;;;;49.80;15.02;;;-0.10;99.90;;;;;;4955890;28;20048;-65
2023/02/10 04:43:14;;;;;;;34.93;12.47;;;-0.10;99.90;;;;;;4956108;28;20054;-66
2023/02/10 04:45:40;;;;;;;39.50;11.98;;;-0.10;99.90;;;;;;4955701;28;20021;-70
2023/02/10 04:48:06;;;;;;;36.43;13.73;;;-0.10;99.90;;;;;;4956050;28;20040;-66
2023/02/10 04:50:32;;;;;;;27.90;8.93;;;-0.10;99.90;;;;;;4936094;28;20035;-67
2023/02/10 04:52:58;;;;;;;30.52;11.73;;;-0.10;99.90;;;;;;4951148;28;20040;-66
2023/02/10 04:55:24;;;;;;;37.42;11.88;;;-0.20;99.90;;;;;;4956110;28;20020;-65
2023/02/10 04:57:50;;;;;;;28.47;11.00;;;-0.20;99.90;;;;;;4958083;28;20029;-73
2023/02/10 05:00:16;;;;;;;27.80;11.03;;;-0.30;99.90;;;;;;4956631;28;20258;-73
2023/02/10 05:02:42;;;;;;;33.30;10.88;;;-0.30;99.90;;;;;;4955052;28;20027;-67
2023/02/10 05:05:11;;;;;;;21.93;8.13;;;-0.40;99.90;;;;;;4938854;28;20032;-65
2023/02/10 05:07:37;;;;;;;28.65;10.35;;;-0.30;99.90;;;;;;4955119;28;20035;-73
2023/02/10 05:10:04;;;;;;;27.20;10.43;;;-0.30;99.90;;;;;;4952824;28;20319;-65
2023/02/10 05:12:30;;;;;;;;;;;-0.20;99.90;;;;;;4956466;28;20131;-66
2023/02/10 05:14:56;;;;;;;28.08;8.85;;;-0.20;99.90;;;;;;4955947;28;23728;-71
2023/02/10 05:17:22;;;;;;;26.50;9.67;;;-0.20;99.90;;;;;;4957591;28;20091;-65
2023/02/10 05:19:48;;;;;;;31.73;11.80;;;-0.20;99.90;;;;;;4956332;28;20464;-65
2023/02/10 05:22:14;;;;;;;18.10;7.70;;;-0.30;99.90;;;;;;4953748;28;20035;-66
2023/02/10 05:24:40;;;;;;;29.27;10.82;;;-0.30;99.90;;;;;;4939629;28;20107;-66
2023/02/10 05:27:06;;;;;;;28.30;9.30;;;-0.30;99.90;;;;;;4955137;28;20797;-73
2023/02/10 05:29:32;;;;;;;19.13;7.53;;;-0.30;99.90;;;;;;4956595;28;20029;-65
2023/02/10 05:31:58;;;;;;;30.70;8.27;;;-0.20;99.90;;;;;;4956765;28;20029;-65
2023/02/10 05:34:25;;;;;;;29.27;10.18;;;-0.20;99.90;;;;;;4936275;28;20402;-66
2023/02/10 05:36:51;;;;;;;28.95;10.38;;;-0.20;99.90;;;;;;4940147;28;20027;-72
2023/02/10 05:39:23;;;;;;;34.60;10.80;;;-0.30;99.90;;;;;;4955237;28;20032;-65
2023/02/10 05:41:53;;;;;;;29.75;11.98;;;-0.30;99.90;;;;;;4957364;28;20544;-64
2023/02/10 05:44:19;;;;;;;26.38;10.93;;;-0.30;99.90;;;;;;4955784;28;20025;-74
2023/02/10 05:46:45;;;;;;;27.58;10.45;;;-0.30;99.90;;;;;;4955760;28;20684;-64
2023/02/10 05:49:11;;;;;;;26.67;10.48;;;-0.30;99.90;;;;;;4954151;28;20064;-72
2023/02/10 05:51:37;;;;;;;36.40;11.52;;;-0.30;99.90;;;;;;4955781;28;20013;-65
2023/02/10 05:54:03;;;;;;;32.33;10.20;;;-0.30;99.90;;;;;;4958364;28;20086;-74
2023/02/10 05:56:29;;;;;;;23.30;10.10;;;-0.30;99.90;;;;;;4959611;28;20021;-73
2023/02/10 05:58:55;;;;;;;32.77;12.80;;;-0.30;99.90;;;;;;4957886;28;20044;-67
2023/02/10 06:01:22;;;;;;;28.98;11.63;;;-0.30;99.90;;;;;;4958007;28;20419;-66
2023/02/10 06:03:47;;;;;;;29.27;11.00;;;-0.30;99.90;;;;;;4957107;28;20051;-73
2023/02/10 06:06:13;;;;;;;34.93;12.87;;;-0.30;99.90;;;;;;4938090;28;20472;-66
2023/02/10 06:08:39;;;;;;;34.77;10.50;;;-0.40;99.90;;;;;;4957704;28;20032;-74
2023/02/10 06:11:06;;;;;;;37.37;12.07;;;-0.40;99.90;;;;;;4937471;28;20535;-66
2023/02/10 06:13:32;;;;;;;28.02;12.40;;;-0.40;99.90;;;;;;4956896;28;20262;-73
2023/02/10 06:15:58;;;;;;;36.97;13.23;;;-0.40;99.90;;;;;;4957692;28;20049;-65
2023/02/10 06:18:24;;;;;;;35.03;13.02;;;-0.40;99.90;;;;;;4956171;28;20070;-65
2023/02/10 06:20:50;;;;;;;47.43;14.13;;;-0.40;99.90;;;;;;4954895;28;23565;-66
2023/02/10 06:23:16;;;;;;;;;;;-0.40;99.90;;;;;;4938736;28;20047;-68
2023/02/10 06:25:42;;;;;;;36.42;13.43;;;-0.40;99.90;;;;;;4956519;28;23456;-65
2023/02/10 06:28:08;;;;;;;35.72;14.23;;;-0.40;99.90;;;;;;4956542;28;20143;-73
2023/02/10 06:30:35;;;;;;;42.47;14.33;;;-0.30;99.90;;;;;;4936159;28;20112;-65
2023/02/10 06:33:00;;;;;;;40.25;15.02;;;-0.30;99.90;;;;;;4956168;28;21237;-66
2023/02/10 06:35:26;;;;;;;44.03;15.23;;;-0.20;99.90;;;;;;4938973;28;20032;-64
2023/02/10 06:37:53;;;;;;;42.10;16.33;;;-0.20;99.90;;;;;;4955906;28;20020;-67
2023/02/10 06:40:19;;;;;;;51.53;15.32;;;-0.10;99.90;;;;;;4936187;28;20104;-73
2023/02/10 06:42:47;;;;;;;37.97;12.65;;;-0.10;99.90;;;;;;4956755;28;20032;-65
2023/02/10 06:45:13;;;;;;;45.28;16.17;;;-0.10;99.90;;;;;;4958357;28;20106;-72
2023/02/10 06:47:38;;;;;;;39.40;13.10;;;-0.10;99.90;;;;;;4955679;28;20025;-66
2023/02/10 06:50:06;;;;;;;56.77;15.63;;;-0.10;99.90;;;;;;4957915;28;21032;-74
2023/02/10 06:52:34;;;;;;;41.08;16.08;;;-0.10;99.90;;;;;;4957318;28;20415;-66
2023/02/10 06:55:00;;;;;;;48.47;16.25;;;-0.10;99.90;;;;;;4953961;28;20032;-67
2023/02/10 06:57:26;;;;;;;51.00;17.37;;;0.00;99.90;;;;;;4954660;28;20029;-73
2023/02/10 06:59:52;;;;;;;29.37;11.77;;;0.00;99.90;;;;;;4957533;28;20055;-68
2023/02/10 07:02:18;;;;;;;50.08;15.70;;;0.00;99.90;;;;;;4951731;28;20862;-65
2023/02/10 07:04:44;;;;;;;47.05;16.30;;;0.00;99.90;;;;;;4956116;28;20708;-64
2023/02/10 07:07:10;;;;;;;45.83;15.67;;;0.00;99.90;;;;;;4956508;28;20623;-65
2023/02/10 07:09:37;;;;;;;40.47;16.23;;;0.00;99.90;;;;;;4955234;28;21159;-66
2023/02/10 07:12:03;;;;;;;49.35;16.98;;;0.10;99.90;;;;;;4957377;28;20012;-73
2023/02/10 07:14:29;;;;;;;50.38;15.68;;;0.10;99.90;;;;;;4953105;28;20045;-64
2023/02/10 07:16:55;;;;;;;50.27;16.73;;;0.10;99.90;;;;;;4954058;28;21013;-66
2023/02/10 07:19:20;;;;;;;35.87;14.77;;;0.20;99.90;;;;;;4953554;28;20887;-66
2023/02/10 07:21:46;;;;;;;36.70;14.47;;;0.30;99.90;;;;;;4934842;28;20055;-65
2023/02/10 07:24:12;;;;;;;40.97;15.33;;;0.20;99.90;;;;;;4934258;28;21134;-65
2023/02/10 07:26:37;;;;;;;51.93;15.57;;;0.30;99.90;;;;;;4958308;28;20657;-65
2023/02/10 07:29:03;;;;;;;45.40;16.60;;;0.30;99.90;;;;;;4953989;28;20330;-66
2023/02/10 07:31:29;;;;;;;44.97;16.10;;;0.30;99.90;;;;;;4956328;28;20060;-66
2023/02/10 07:33:54;;;;;;;44.90;14.97;;;0.40;99.90;;;;;;4956125;28;20021;-67
2023/02/10 07:36:20;;;;;;;41.27;15.33;;;0.40;99.90;;;;;;4954491;28;20025;-65
2023/02/10 07:38:46;;;;;;;63.67;15.63;;;0.40;99.90;;;;;;4955465;28;20082;-73
2023/02/10 07:41:12;;;;;;;41.80;15.40;;;0.50;99.90;;;;;;4956540;28;20024;-64
2023/02/10 07:43:37;;;;;;;52.07;15.43;;;0.50;99.90;;;;;;4940309;28;20700;-66
2023/02/10 07:46:03;;;;;;;66.20;15.80;;;0.50;99.90;;;;;;4936578;28;20031;-65
2023/02/10 07:48:29;;;;;;;79.07;36.90;;;0.50;99.90;;;;;;4940690;28;20036;-72
2023/02/10 07:50:54;;;;;;;36.53;16.23;;;0.50;99.90;;;;;;4955942;28;20028;-72
2023/02/10 07:53:21;;;;;;;38.50;15.60;;;0.50;99.90;;;;;;4950025;28;20028;-73
2023/02/10 07:55:47;;;;;;;45.08;20.27;;;0.60;99.90;;;;;;4938027;28;20099;-66
2023/02/10 07:58:13;;;;;;;40.65;20.63;;;0.60;99.90;;;;;;4955263;28;20040;-66
2023/02/10 08:00:39;;;;;;;27.70;12.63;;;0.60;99.90;;;;;;4937112;28;20119;-73
2023/02/10 08:03:05;;;;;;;43.33;14.27;;;0.70;99.90;;;;;;4952104;28;20764;-65
2023/02/10 08:05:31;;;;;;;42.17;18.13;;;0.70;99.90;;;;;;4936427;28;20024;-73
2023/02/10 08:07:56;;;;;;;58.20;19.88;;;0.80;99.90;;;;;;4935843;28;20028;-73
2023/02/10 08:10:22;;;;;;;42.33;19.57;;;0.90;99.90;;;;;;4953424;28;20025;-66
2023/02/10 08:12:48;;;;;;;43.30;17.27;;;1.00;99.90;;;;;;4954292;28;20031;-66
2023/02/10 08:15:17;;;;;;;59.43;18.03;;;1.00;99.90;;;;;;4938343;28;20258;-71
2023/02/10 08:17:44;;;;;;;35.53;15.43;;;1.00;99.90;;;;;;4932143;28;20562;-72
2023/02/10 08:20:10;;;;;;;;;;;1.20;99.90;;;;;;4932640;28;20025;-67
2023/02/10 08:22:35;;;;;;;28.08;10.52;;;1.20;99.90;;;;;;4950489;28;20254;-66
2023/02/10 08:25:02;;;;;;;23.67;11.20;;;1.20;99.90;;;;;;4950087;28;20045;-73
2023/02/10 08:27:28;;;;;;;26.92;9.48;;;1.30;99.90;;;;;;4936216;28;20520;-65
2023/02/10 08:29:54;;;;;;;30.73;12.93;;;1.20;99.90;;;;;;4953421;28;20074;-65
2023/02/10 08:32:21;;;;;;;24.83;10.45;;;1.30;99.90;;;;;;4950148;28;20748;-72
2023/02/10 08:34:48;;;;;;;35.40;13.70;;;1.30;99.90;;;;;;4937207;28;20060;-74
2023/02/10 08:37:14;;;;;;;43.90;12.77;;;1.40;99.90;;;;;;4953786;28;22140;-68
2023/02/10 08:39:40;;;;;;;33.20;12.35;;;1.40;99.90;;;;;;4954751;28;20529;-66
2023/02/10 08:42:06;;;;;;;33.00;13.53;;;1.40;99.90;;;;;;4932037;28;20029;-65
2023/02/10 08:44:31;;;;;;;42.23;15.13;;;1.40;99.90;;;;;;4949086;28;20033;-67
2023/02/10 08:46:57;;;;;;;35.83;15.77;;;1.40;99.90;;;;;;4949913;28;20051;-74
2023/02/10 08:49:24;;;;;;;27.63;11.07;;;1.40;99.90;;;;;;4949762;28;20121;-64
2023/02/10 08:51:54;;;;;;;34.55;15.05;;;1.50;99.90;;;;;;4932695;28;20315;-71
2023/02/10 08:54:20;;;;;;;35.70;15.93;;;1.60;99.90;;;;;;4952489;28;20418;-73
2023/02/10 08:56:46;;;;;;;32.33;14.38;;;1.70;99.90;;;;;;4955346;28;20898;-65
2023/02/10 08:59:12;;;;;;;37.97;14.87;;;1.70;99.90;;;;;;4954481;28;20733;-65
2023/02/10 09:01:38;;;;;;;27.53;10.83;;;1.80;99.90;;;;;;4954298;28;20270;-65
2023/02/10 09:04:04;;;;;;;34.92;14.23;;;1.90;99.90;;;;;;4956372;28;20036;-70
2023/02/10 09:06:40;;;;;;;33.67;14.17;;;2.00;99.90;;;;;;4984120;28;20032;-72
2023/02/10 09:09:19;;;;;;;36.67;15.70;;;2.10;99.90;;;;;;5055290;28;20064;-65
2023/02/10 09:11:45;;;;;;;52.92;20.88;;;2.10;99.90;;;;;;5037507;28;20331;-66
2023/02/10 09:14:11;;;;;;;37.60;17.27;;;2.20;99.90;;;;;;5051588;28;20036;-66
2023/02/10 09:16:37;;;;;;;35.17;15.50;;;2.20;99.90;;;;;;5048735;28;20033;-66
2023/02/10 09:19:04;;;;;;;39.27;16.10;;;2.30;99.90;;;;;;5045434;28;20100;-69
2023/02/10 09:21:30;;;;;;;40.08;15.65;;;2.30;99.90;;;;;;5064341;28;20322;-68
2023/02/10 09:23:56;;;;;;;37.97;16.02;;;2.50;99.90;;;;;;5048851;28;20339;-74
2023/02/10 09:26:22;;;;;;;37.30;16.57;;;2.50;99.90;;;;;;5037187;28;20029;-74
2023/02/10 09:28:48;;;;;;;39.70;17.80;;;2.60;99.90;;;;;;5008144;28;20055;-65
2023/02/10 09:31:15;;;;;;;40.77;17.23;;;2.70;99.90;;;;;;4945663;28;20031;-73
2023/02/10 09:33:42;;;;;;;45.22;16.38;;;2.80;99.90;;;;;;4946646;28;20025;-65
2023/02/10 09:36:12;;;;;;;;;;;3.00;99.90;;;;;;4929184;28;20031;-73
2023/02/10 09:38:38;;;;;;;41.03;16.63;;;3.10;99.90;;;;;;4946861;28;20838;-67
2023/02/10 09:41:28;;;;;;;28.67;11.17;;;3.20;99.90;;;;;;4946150;28;21137;-67
2023/02/10 09:44:12;;;;;;;41.88;15.18;;;3.30;99.90;;;;;;4944054;28;24221;-67
2023/02/10 09:46:46;;;;;;;30.58;15.02;;;3.30;99.90;;;;;;4942333;28;20442;-66
2023/02/10 09:49:41;;;;;;;44.75;14.98;;;3.40;99.90;;;;;;4940344;28;20356;-66
2023/02/10 09:52:42;;;;;;;36.03;14.02;;;3.60;99.90;;;;;;4937694;28;20895;-67
2023/02/10 09:55:20;;;;;;;37.58;15.85;;;3.90;99.90;;;;;;4938468;28;20128;-72
2023/02/10 09:57:53;;;;;;;35.60;16.50;;;4.30;99.90;;;;;;4938410;28;20017;-66
2023/02/10 10:00:42;;;;;;;29.10;13.90;;;4.70;99.90;;;;;;4949830;28;20480;-70
2023/02/10 10:03:15;;;;;;;28.30;13.63;;;5.00;99.90;;;;;;4936708;28;20056;-73
2023/02/10 10:05:59;;;;;;;26.75;13.68;;;5.40;99.90;;;;;;4926174;28;20449;-66
2023/02/10 10:08:49;;;;;;;31.00;13.48;;;5.70;99.90;;;;;;4942124;28;20039;-73
2023/02/10 10:11:37;;;;;;;27.90;12.88;;;5.90;99.90;;;;;;4918421;28;20067;-69
2023/02/10 10:14:04;;;;;;;29.00;13.18;;;5.90;99.90;;;;;;4951443;28;21593;-74
2023/02/10 10:16:53;;;;;;;22.17;11.85;;;6.00;99.90;;;;;;4952471;28;20449;-68
2023/02/10 10:19:43;;;;;;;26.02;12.40;;;6.00;99.90;;;;;;4952569;28;20028;-69
2023/02/10 10:22:15;;;;;;;25.23;10.93;;;6.00;99.90;;;;;;5047927;28;20045;-74
2023/02/10 10:24:55;;;;;;;26.85;11.68;;;6.00;99.90;;;;;;5048832;28;20072;-73
2023/02/10 10:27:40;;;;;;;25.38;12.65;;;5.80;99.90;;;;;;5048607;28;20025;-74
2023/02/10 10:30:18;;;;;;;26.30;11.45;;;5.90;99.90;;;;;;5049544;28;20327;-74
2023/02/10 10:32:51;;;;;;;23.73;12.10;;;5.90;99.90;;;;;;5056094;28;20036;-73
2023/02/10 10:35:32;;;;;;;26.13;12.63;;;6.00;99.90;;;;;;5052703;28;20323;-68
2023/02/10 10:37:58;;;;;;;31.73;11.90;;;6.00;99.90;;;;;;5047246;28;20022;-74
2023/02/10 10:40:31;;;;;;;35.00;11.82;;;6.00;99.90;;;;;;5050756;28;20067;-74
2023/02/10 10:43:00;;;;;;;26.02;11.75;;;6.00;99.90;;;;;;4993869;28;20024;-67
2023/02/10 10:45:42;;;;;;;26.50;12.32;;;6.10;99.90;;;;;;4945045;28;20120;-73
2023/02/10 10:48:15;;;;;;;23.80;11.38;;;6.10;99.90;;;;;;4921440;28;20025;-67
2023/02/10 10:50:41;;;;;;;32.90;11.40;;;6.20;99.90;;;;;;4940576;28;20112;-67
2023/02/10 10:53:22;;;;;;;38.03;11.90;;;6.20;99.90;;;;;;4939633;28;20029;-68
2023/02/10 10:55:51;;;;;;;27.67;10.95;;;6.40;99.90;;;;;;4939940;28;20523;-67
2023/02/10 10:58:36;;;;;;;24.15;11.00;;;6.50;99.90;;;;;;4938543;28;20048;-74
2023/02/10 11:01:03;;;;;;;25.90;12.02;;;6.40;99.90;;;;;;4937885;28;20127;-66
2023/02/10 11:03:29;;;;;;;;;;;6.50;99.90;;;;;;4936174;28;20025;-67
2023/02/10 11:06:06;;;;;;;23.77;10.13;;;6.50;99.90;;;;;;4940595;28;21313;-69
2023/02/10 11:08:59;;;;;;;18.65;9.60;;;6.60;99.90;;;;;;4944972;28;20646;-74
2023/02/10 11:11:36;;;;;;;27.67;9.55;;;6.60;99.90;;;;;;4926937;28;20578;-67
2023/02/10 11:14:11;;;;;;;20.00;10.35;;;6.70;99.90;;;;;;4928575;28;20025;-66
2023/02/10 11:16:43;;;;;;;27.40;10.20;;;6.90;99.90;;;;;;4944437;28;20032;-66
2023/02/10 11:19:18;;;;;;;24.73;10.75;;;6.90;99.90;;;;;;4944959;28;20775;-70
2023/02/10 11:21:44;;;;;;;24.63;10.57;;;7.10;99.90;;;;;;4946212;28;20036;-68
2023/02/10 11:24:47;;;;;;;20.08;9.50;;;7.20;99.90;;;;;;4943161;28;20049;-66
2023/02/10 11:27:17;;;;;;;25.23;10.32;;;7.30;99.90;;;;;;4941194;28;20034;-66
2023/02/10 11:29:55;;;;;;;19.95;8.18;;;7.40;99.90;;;;;;4942871;28;20037;-67
2023/02/10 11:32:33;;;;;;;17.73;9.07;;;7.50;99.90;;;;;;4947157;28;23852;-70
2023/02/10 11:35:02;;;;;;;27.70;9.02;;;7.50;99.90;;;;;;4947936;28;20865;-67
2023/02/10 11:37:35;;;;;;;19.60;9.00;;;7.40;99.90;;;;;;4930492;28;20028;-67
2023/02/10 11:40:22;;;;;;;22.17;8.95;;;7.50;99.90;;;;;;4948318;28;20034;-65
2023/02/10 11:42:51;;;;;;;19.25;7.88;;;7.50;99.90;;;;;;4938616;28;20032;-67
2023/02/10 11:45:29;;;;;;;20.38;8.68;;;7.50;99.90;;;;;;4939295;28;20025;-67
2023/02/10 11:48:04;;;;;;;19.67;8.50;;;7.50;99.90;;;;;;4939667;28;20029;-74
2023/02/10 11:50:34;;;;;;;18.75;8.27;;;7.60;99.90;;;;;;4938772;28;20051;-75
2023/02/10 11:53:00;;;;;;;24.13;8.23;;;7.70;99.90;;;;;;4939422;28;20020;-66
2023/02/10 11:55:59;;;;;;;18.50;7.93;;;7.80;99.90;;;;;;4941224;28;20025;-66
2023/02/10 11:58:58;;;;;;;19.17;8.48;;;7.80;99.90;;;;;;4936773;28;20759;-67
2023/02/10 12:01:39;;;;;;;21.60;9.48;;;7.80;99.90;;;;;;4934689;28;20025;-75
2023/02/10 12:04:26;;;;;;;23.15;7.95;;;7.80;99.90;;;;;;4936426;28;20083;-67
2023/02/10 12:07:07;;;;;;;16.30;7.95;;;7.80;99.90;;;;;;4936175;28;20734;-67
2023/02/10 12:09:54;;;;;;;17.45;8.00;;;7.80;99.90;;;;;;4937411;28;20623;-71
2023/02/10 12:12:43;;;;;;;25.88;8.85;;;7.90;99.90;;;;;;4903663;28;20033;-67
2023/02/10 12:15:37;;;;;;;20.65;8.70;;;8.00;99.90;;;;;;4923130;28;20025;-67
2023/02/10 12:18:38;;;;;;;17.35;8.60;;;8.00;99.90;;;;;;4934861;28;20044;-68
2023/02/10 12:21:40;;;;;;;18.63;7.93;;;8.10;99.90;;;;;;4876216;28;20376;-68
2023/02/10 12:24:09;;;;;;;16.88;7.55;;;8.10;99.90;;;;;;4874657;28;20037;-67
2023/02/10 12:26:40;;;;;;;23.83;9.40;;;8.20;99.90;;;;;;4878865;28;20182;-67
2023/02/10 12:29:32;;;;;;;16.52;8.45;;;8.20;99.90;;;;;;4863588;28;22432;-66
2023/02/10 12:32:24;;;;;;;18.20;8.63;;;8.10;99.90;;;;;;4870758;28;20030;-66
2023/02/10 12:35:20;;;;;;;23.33;8.52;;;8.10;99.90;;;;;;4887864;28;20030;-72
2023/02/10 12:37:52;;;;;;;18.75;8.88;;;8.00;99.90;;;;;;4887953;28;20065;-67
2023/02/10 12:40:40;;;;;;;15.38;6.97;;;8.10;99.90;;;;;;4886848;28;20034;-74
2023/02/10 12:43:15;;;;;;;17.98;8.52;;;8.30;99.90;;;;;;4881616;28;20038;-66
2023/02/10 12:45:40;;;;;;;20.17;8.35;;;8.20;99.90;;;;;;4870143;28;20037;-66
2023/02/10 12:48:57;;;;;;;29.60;9.10;;;8.30;99.90;;;;;;4884778;28;20125;-67
2023/02/10 12:51:22;;;;;;;19.55;9.20;;;8.20;99.90;;;;;;4887253;28;20034;-66
2023/02/10 12:53:54;;;;;;;24.70;9.10;;;8.20;99.90;;;;;;4886778;28;20173;-67
2023/02/10 12:56:43;;;;;;;24.38;9.55;;;8.20;99.90;;;;;;4946312;28;23416;-67